Tropical Cyclones
[Index]
Main Index Home Page Stock Weather Photos Extreme Storms Discussion Storm News and Storm Chasing Reports Tropical Cyclones / Hurricanes / Typhoons Weather Data and Links Wild Fires / Bushfires Weather Observation Techniques Weather Picture Catalogue Tornado Pictures and Reports Stock Video Footage and DVDs for sale
Season 2016-2017 Tropical Cyclone YVETTE Track Map
Season 2016-2017 Summaries (Operational Data): [AU] [SIO] [SPAC] [SH]
<<- Previous TC | 2016-2017 Season | Next TC ->>

click for intensity scale information  Lat/long Grid: Show Hide

 Date Labels: Show Hide

Operational Tropical Cyclone Data : JTWC Advisories

Name: YVETTE
Number: 1702

18 Dec 2016 00:00 UTC to 25 Dec 2016 12:00 UTC

    date/time    lat    long     hPa   cat  kts
2016-12-18 00   14.3   115.5    1010         15          
2016-12-18 06   14.5   115.9    1010         15          
2016-12-18 12   14.6   114.6    1010         15          
2016-12-18 18   15.3   115.5    1004         25          
2016-12-19 00   15.7   115.5    1000         30          
2016-12-19 06   16.0   115.2     998         30          
2016-12-19 12   16.0   114.8     998         30          
2016-12-19 18   16.1   113.8     996    1    35          
2016-12-20 00   15.0   113.2     996    1    35          
2016-12-20 06   14.4   114.0     996    1    35          
2016-12-20 12   14.4   114.1     996    1    35          
2016-12-20 18   14.5   114.2     996    1    35          
2016-12-21 00   14.6   113.9     996    1    40          
2016-12-21 06   14.3   113.9     987    1    40          
2016-12-21 12   14.2   114.0     989    1    45          
2016-12-21 18   14.2   114.1     990    1    45          
2016-12-22 00   14.2   114.2     990    1    45          
2016-12-22 06   14.2   114.3     991    1    45          
2016-12-22 12   14.3   114.5     993    1    40          
2016-12-22 18   14.3   114.7     992    1    40          
2016-12-23 00   14.3   115.3     992    1    40          
2016-12-23 06   14.7   116.1     993    1    35          
2016-12-23 12   14.7   116.5     993    1    35          
2016-12-23 18   14.8   117.6     999         30          
2016-12-24 00   15.6   119.1    1004         25          
2016-12-24 06   16.2   119.5    1007         20          
2016-12-24 12   16.5   119.8    1007         20          
2016-12-24 18   16.9   120.6    1007         20          
2016-12-25 00   17.7   121.8    1007         20          
2016-12-25 06   22.9   119.0     995                     
2016-12-25 12   22.8   120.3     996                     
Winds are 10-min average.

Tropical cyclone tracks developed by Michael Bath using operational warnings and advisories and Google Maps.


[Australian Severe Weather index] [Copyright Notice] [Email Contacts] [Search This Site] [Privacy Policy]
Document: tropical_cyclone_yvette.htm Updated: 4 July 2017